createdAt,value
2018-07-15T00:00:14.843Z,101757.61
2018-07-15T00:03:16.917Z,101753.62
2018-07-15T00:06:19.068Z,101755.88
2018-07-15T00:09:21.872Z,101751.55
2018-07-15T00:12:23.902Z,101751.58
2018-07-15T00:15:26.008Z,101747.54
2018-07-15T00:18:28.093Z,101742.78
2018-07-15T00:21:30.204Z,101747.98
2018-07-15T00:24:33.495Z,101752.01
2018-07-15T00:27:35.599Z,101751.50
2018-07-15T00:30:37.544Z,101747.39
2018-07-15T00:33:39.645Z,101744.30
2018-07-15T00:36:42.762Z,101740.52
2018-07-15T00:39:44.809Z,101743.67
2018-07-15T00:42:46.782Z,101738.58
2018-07-15T00:45:48.851Z,101737.98
2018-07-15T00:48:50.936Z,101738.57
2018-07-15T00:51:53.095Z,101741.36
2018-07-15T00:54:55.155Z,101739.48
2018-07-15T00:57:57.226Z,101735.05
2018-07-15T01:01:00.353Z,101732.73
2018-07-15T01:04:02.425Z,101738.79
2018-07-15T01:07:04.635Z,101737.84
2018-07-15T01:10:07.788Z,101742.21
2018-07-15T01:13:09.980Z,101749.58
2018-07-15T01:16:12.180Z,101744.91
2018-07-15T01:19:14.305Z,101740.97
2018-07-15T01:22:16.308Z,101734.78
2018-07-15T01:25:18.391Z,101742.61
2018-07-15T01:28:20.475Z,101749.78
2018-07-15T01:31:22.561Z,101750.61
2018-07-15T01:34:24.722Z,101752.32
2018-07-15T01:37:26.792Z,101748.70
2018-07-15T01:40:28.968Z,101750.00
2018-07-15T01:43:30.916Z,101743.43
2018-07-15T01:46:34.582Z,101748.13
2018-07-15T01:49:36.860Z,101741.20
2018-07-15T01:52:39.035Z,101741.73
2018-07-15T01:55:41.168Z,101744.58
2018-07-15T01:58:44.356Z,101746.63
2018-07-15T02:01:46.310Z,101742.79
2018-07-15T02:04:48.401Z,101740.28
2018-07-15T02:07:50.568Z,101744.43
2018-07-15T02:10:52.644Z,101742.36
2018-07-15T02:13:55.725Z,101743.23
2018-07-15T02:16:57.787Z,101744.64
2018-07-15T02:19:59.870Z,101746.90
2018-07-15T02:23:02.835Z,101749.32
2018-07-15T02:26:04.924Z,101738.53
2018-07-15T02:29:07.094Z,101735.28
2018-07-15T02:32:09.264Z,101739.05
2018-07-15T02:35:11.332Z,101742.88
2018-07-15T02:38:14.469Z,101743.10
2018-07-15T02:41:16.603Z,101741.60
2018-07-15T02:44:18.683Z,101738.26
2018-07-15T02:47:20.895Z,101738.24
2018-07-15T02:50:23.010Z,101735.34
2018-07-15T02:53:25.063Z,101738.42
2018-07-15T02:56:27.184Z,101734.35
2018-07-15T02:59:29.317Z,101737.68
2018-07-15T03:02:31.387Z,101740.92
2018-07-15T03:05:34.417Z,101745.23
2018-07-15T03:08:36.480Z,101746.98
2018-07-15T03:11:38.613Z,101750.89
2018-07-15T03:14:40.787Z,101742.02
2018-07-15T03:17:42.931Z,101738.88
2018-07-15T03:20:45.084Z,101736.61
2018-07-15T03:23:47.233Z,101742.06
2018-07-15T03:26:49.670Z,101742.10
2018-07-15T03:29:51.819Z,101747.22
2018-07-15T03:32:55.506Z,101741.17
2018-07-15T03:35:57.600Z,101740.77
2018-07-15T03:38:59.676Z,101737.99
2018-07-15T03:42:01.628Z,101732.66
2018-07-15T03:45:04.042Z,101735.30
2018-07-15T03:48:18.676Z,101733.82
2018-07-15T03:51:21.746Z,101732.76
2018-07-15T03:54:23.833Z,101729.57
2018-07-15T03:57:26.484Z,101730.88
2018-07-15T04:00:28.690Z,101734.19
2018-07-15T04:03:30.745Z,101732.18
2018-07-15T04:06:32.919Z,101726.46
2018-07-15T04:09:36.040Z,101722.20
2018-07-15T04:12:38.236Z,101720.78
2018-07-15T04:15:40.483Z,101724.17
2018-07-15T04:18:42.526Z,101723.56
2018-07-15T04:21:44.588Z,101723.53
2018-07-15T04:24:46.654Z,101719.24
2018-07-15T04:27:48.841Z,101719.77
2018-07-15T04:30:50.996Z,101719.77
2018-07-15T04:33:54.211Z,101719.71
2018-07-15T04:36:56.482Z,101717.19
2018-07-15T04:39:58.564Z,101714.26
2018-07-15T04:43:00.533Z,101718.79
2018-07-15T04:46:02.567Z,101722.84
2018-07-15T04:49:04.803Z,101722.31
2018-07-15T04:52:06.871Z,101724.56
2018-07-15T04:55:08.883Z,101720.98
2018-07-15T04:58:12.183Z,101718.79
2018-07-15T05:01:14.244Z,101719.88
2018-07-15T05:04:16.336Z,101721.04
2018-07-15T05:07:18.816Z,101720.98
2018-07-15T05:10:20.866Z,101723.50
2018-07-15T05:13:24.175Z,101733.20
2018-07-15T05:16:26.245Z,101738.97
2018-07-15T05:19:28.428Z,101742.40
2018-07-15T05:22:30.444Z,101747.99
2018-07-15T05:25:32.609Z,101749.57
2018-07-15T05:28:34.825Z,101754.67
2018-07-15T05:31:36.988Z,101755.40
2018-07-15T05:34:39.086Z,101758.10
2018-07-15T05:37:41.240Z,101758.93
2018-07-15T05:40:43.336Z,101760.09
2018-07-15T05:43:45.372Z,101761.60
2018-07-15T05:46:47.857Z,101756.52
2018-07-15T05:49:51.016Z,101756.78
2018-07-15T05:52:53.131Z,101756.01
2018-07-15T05:55:55.217Z,101758.43
2018-07-15T05:58:57.473Z,101765.06
2018-07-15T06:01:59.560Z,101766.39
2018-07-15T06:05:01.827Z,101768.82
2018-07-15T06:08:04.982Z,101776.50
2018-07-15T06:11:06.971Z,101778.52
2018-07-15T06:14:08.973Z,101776.62
2018-07-15T06:17:12.294Z,101775.62
2018-07-15T06:20:14.343Z,101770.80
2018-07-15T06:23:16.361Z,101771.36
2018-07-15T06:26:18.475Z,101777.85
2018-07-15T06:29:20.564Z,101780.91
2018-07-15T06:32:22.828Z,101776.77
2018-07-15T06:35:25.008Z,101769.91
2018-07-15T06:38:27.111Z,101764.28
2018-07-15T06:41:29.247Z,101766.85
2018-07-15T06:44:31.384Z,101763.80
2018-07-15T06:47:33.531Z,101759.56
2018-07-15T06:50:35.979Z,101759.24
2018-07-15T06:53:44.232Z,101761.83
2018-07-15T06:56:46.357Z,101763.03
2018-07-15T06:59:49.552Z,101761.53
2018-07-15T07:02:51.627Z,101763.95
2018-07-15T07:05:53.703Z,101762.15
2018-07-15T07:08:55.861Z,101759.43
2018-07-15T07:11:58.009Z,101760.29
2018-07-15T07:15:00.183Z,101752.49
2018-07-15T07:18:02.370Z,101752.39
2018-07-15T07:21:05.459Z,101747.90
2018-07-15T07:24:07.513Z,101747.99
2018-07-15T07:27:10.606Z,101748.39
2018-07-15T07:30:12.680Z,101752.89
2018-07-15T07:33:14.632Z,101746.32
2018-07-15T07:36:16.712Z,101751.55
2018-07-15T07:39:18.981Z,101747.99
2018-07-15T07:42:21.075Z,101748.86
2018-07-15T07:45:23.233Z,101745.34
2018-07-15T07:48:25.308Z,101741.68
2018-07-15T07:51:27.378Z,101746.18
2018-07-15T07:54:29.507Z,101746.64
2018-07-15T07:57:31.620Z,101732.70
2018-07-15T08:00:33.691Z,101736.76
2018-07-15T08:03:35.651Z,101736.06
2018-07-15T08:06:37.713Z,101731.75
2018-07-15T08:09:39.764Z,101725.91
2018-07-15T08:12:43.867Z,101733.56
2018-07-15T08:15:45.972Z,101734.62
2018-07-15T08:18:48.126Z,101728.43
2018-07-15T08:21:54.203Z,101718.92
2018-07-15T08:24:56.282Z,101720.68
2018-07-15T08:27:58.768Z,101718.75
2018-07-15T08:31:08.840Z,101723.23
2018-07-15T08:34:11.803Z,101722.88
2018-07-15T08:37:13.946Z,101718.92
2018-07-15T08:40:16.049Z,101723.72
2018-07-15T08:43:18.018Z,101722.02
2018-07-15T08:46:20.072Z,101722.89
2018-07-15T08:49:22.149Z,101712.42
2018-07-15T08:52:24.292Z,101705.66
2018-07-15T08:55:26.295Z,101708.00
2018-07-15T08:58:28.459Z,101709.43
2018-07-15T09:01:30.556Z,101715.60
2018-07-15T09:04:32.619Z,101710.20
2018-07-15T09:07:34.785Z,101711.55
2018-07-15T09:10:37.238Z,101714.27
2018-07-15T09:13:39.464Z,101708.93
2018-07-15T09:16:42.468Z,101706.07
2018-07-15T09:19:44.603Z,101705.45
2018-07-15T09:22:46.717Z,101701.74
2018-07-15T09:25:48.892Z,101697.49
2018-07-15T09:28:51.020Z,101700.15
2018-07-15T09:31:53.300Z,101697.61
2018-07-15T09:34:55.477Z,101702.13
2018-07-15T09:37:58.645Z,101697.56
2018-07-15T09:41:00.708Z,101697.87
2018-07-15T09:44:02.803Z,101691.58
2018-07-15T09:47:04.973Z,101694.78
2018-07-15T09:50:07.174Z,101690.42
2018-07-15T09:53:09.391Z,101682.48
2018-07-15T09:56:12.308Z,101676.08
2018-07-15T09:59:14.513Z,101671.24
2018-07-15T10:02:16.590Z,101663.05
2018-07-15T10:05:18.712Z,101662.80
2018-07-15T10:08:21.884Z,101656.56
2018-07-15T10:11:24.831Z,101650.14
2018-07-15T10:14:26.936Z,101652.79
2018-07-15T10:17:29.322Z,101643.70
2018-07-15T10:20:31.445Z,101635.57
2018-07-15T10:23:33.814Z,101624.93
2018-07-15T10:26:36.382Z,101628.18
2018-07-15T10:29:38.612Z,101619.55
2018-07-15T10:32:41.956Z,101616.52
2018-07-15T10:35:44.127Z,101604.75
2018-07-15T10:38:46.338Z,101599.80
2018-07-15T10:41:48.525Z,101597.57
2018-07-15T10:44:50.687Z,101596.44
2018-07-15T10:47:52.847Z,101594.50
2018-07-15T10:50:54.976Z,101592.07
2018-07-15T10:53:57.168Z,101580.39
2018-07-15T10:56:59.268Z,101577.60
2018-07-15T11:00:01.460Z,101576.10
2018-07-15T11:03:03.652Z,101572.62
2018-07-15T11:06:05.923Z,101569.20
2018-07-15T11:09:07.986Z,101559.85
2018-07-15T11:12:10.125Z,101562.47
2018-07-15T11:15:13.384Z,101559.17
2018-07-15T11:18:15.543Z,101554.91
2018-07-15T11:21:17.623Z,101548.87
2018-07-15T11:24:19.701Z,101545.86
2018-07-15T11:27:21.809Z,101545.63
2018-07-15T11:30:23.916Z,101546.95
2018-07-15T11:33:25.999Z,101550.18
2018-07-15T11:36:27.974Z,101548.38
2018-07-15T11:39:30.238Z,101540.29
2018-07-15T11:42:32.398Z,101534.96
2018-07-15T11:45:34.504Z,101527.18
2018-07-15T11:48:36.660Z,101525.19
2018-07-15T11:51:38.816Z,101517.15
2018-07-15T11:54:41.995Z,101506.76
2018-07-15T11:57:43.988Z,101502.60
2018-07-15T12:00:46.084Z,101503.64
2018-07-15T12:03:48.144Z,101496.93
2018-07-15T12:06:50.128Z,101489.97
2018-07-15T12:09:52.250Z,101489.56
2018-07-15T12:12:54.328Z,101484.28
2018-07-15T12:15:56.544Z,101480.61
2018-07-15T12:18:58.583Z,101477.77
2018-07-15T12:22:00.743Z,101474.81
2018-07-15T12:25:02.964Z,101467.53
2018-07-15T12:28:05.036Z,101461.94
2018-07-15T12:31:08.243Z,101456.16
2018-07-15T12:34:10.394Z,101459.87
2018-07-15T12:37:13.387Z,101450.65
2018-07-15T12:40:16.023Z,101446.84
2018-07-15T12:43:18.122Z,101449.43
2018-07-15T12:46:20.308Z,101445.55
2018-07-15T12:49:22.547Z,101445.97
2018-07-15T12:52:24.604Z,101440.20
2018-07-15T12:55:26.992Z,101444.68
2018-07-15T12:58:29.041Z,101446.78
2018-07-15T13:01:31.309Z,101441.34
2018-07-15T13:04:33.430Z,101447.56
2018-07-15T13:07:35.509Z,101448.53
2018-07-15T13:10:38.050Z,101456.38
2018-07-15T13:13:40.125Z,101464.50
2018-07-15T13:16:42.076Z,101477.15
2018-07-15T13:19:44.148Z,101478.63
2018-07-15T13:22:46.344Z,101480.94
2018-07-15T13:25:48.571Z,101489.73
2018-07-15T13:28:50.691Z,101504.57
2018-07-15T13:31:52.869Z,101508.34
2018-07-15T13:34:54.977Z,101514.79
2018-07-15T13:37:58.157Z,101522.33
2018-07-15T13:41:00.305Z,101531.60
2018-07-15T13:44:02.482Z,101527.92
2018-07-15T13:47:04.470Z,101534.41
2018-07-15T13:50:06.602Z,101533.71
2018-07-15T13:53:08.663Z,101536.48
2018-07-15T13:56:10.741Z,101543.27
2018-07-15T13:59:14.119Z,101560.95
2018-07-15T14:02:16.204Z,101550.58
2018-07-15T14:05:18.364Z,101557.35
2018-07-15T14:08:20.440Z,101547.91
2018-07-15T14:11:22.479Z,101532.34
2018-07-15T14:14:24.476Z,101527.08
2018-07-15T14:17:26.760Z,101527.39
2018-07-15T14:20:28.809Z,101539.16
2018-07-15T14:23:30.858Z,101535.87
2018-07-15T14:26:33.046Z,101540.18
2018-07-15T14:29:36.114Z,101560.89
2018-07-15T14:32:38.406Z,101580.44
2018-07-15T14:35:40.957Z,101595.80
2018-07-15T14:38:44.332Z,101577.73
2018-07-15T14:41:46.523Z,101573.59
2018-07-15T14:44:48.591Z,101582.20
2018-07-15T14:47:50.611Z,101580.73
2018-07-15T14:50:52.725Z,101577.91
2018-07-15T14:53:54.840Z,101567.30
2018-07-15T14:56:56.847Z,101557.65
2018-07-15T14:59:59.538Z,101554.46
2018-07-15T15:03:01.869Z,101528.18
2018-07-15T15:06:04.127Z,101518.54
2018-07-15T15:09:06.675Z,101521.20
2018-07-15T15:12:08.788Z,101519.31
2018-07-15T15:15:10.825Z,101529.21
2018-07-15T15:18:14.227Z,101543.18
2018-07-15T15:21:16.338Z,101551.89
2018-07-15T15:24:18.465Z,101561.76
2018-07-15T15:27:20.570Z,101566.93
2018-07-15T15:30:22.761Z,101587.94
2018-07-15T15:33:25.110Z,101594.14
2018-07-15T15:36:27.317Z,101613.35
2018-07-15T15:39:29.511Z,101636.08
2018-07-15T15:42:31.685Z,101652.33
2018-07-15T15:45:33.667Z,101664.02
2018-07-15T15:48:35.829Z,101661.18
2018-07-15T15:51:37.938Z,101657.64
2018-07-15T15:54:40.668Z,101648.29
2018-07-15T15:57:43.515Z,101646.06
2018-07-15T16:00:45.722Z,101633.89
2018-07-15T16:03:47.914Z,101622.81
2018-07-15T16:06:50.119Z,101605.17
2018-07-15T16:09:52.256Z,101600.34
2018-07-15T16:12:54.729Z,101601.86
2018-07-15T16:15:57.089Z,101606.85
2018-07-15T16:18:59.285Z,101611.89
2018-07-15T16:22:01.437Z,101606.45
2018-07-15T16:25:03.670Z,101601.98
2018-07-15T16:28:05.875Z,101596.94
2018-07-15T16:31:08.065Z,101594.77
2018-07-15T16:34:10.354Z,101592.47
2018-07-15T16:37:13.408Z,101593.46
2018-07-15T16:40:15.580Z,101599.22
2018-07-15T16:43:17.953Z,101599.11
2018-07-15T16:46:19.961Z,101590.15
2018-07-15T16:49:22.031Z,101586.07
2018-07-15T16:52:24.072Z,101598.48
2018-07-15T16:55:26.297Z,101614.03
2018-07-15T16:58:28.333Z,101637.83
2018-07-15T17:01:30.611Z,101661.11
2018-07-15T17:04:32.736Z,101690.36
2018-07-15T17:07:34.883Z,101694.58
2018-07-15T17:10:36.897Z,101679.59
2018-07-15T17:13:38.967Z,101669.93
2018-07-15T17:16:41.363Z,101677.39
2018-07-15T17:19:43.872Z,101685.67
2018-07-15T17:22:45.983Z,101699.81
2018-07-15T17:25:48.138Z,101707.14
2018-07-15T17:28:50.406Z,101704.70
2018-07-15T17:31:52.645Z,101706.70
2018-07-15T17:34:54.670Z,101706.42
2018-07-15T17:37:56.767Z,101698.42
2018-07-15T17:40:58.836Z,101690.93
2018-07-15T17:44:00.905Z,101686.82
2018-07-15T17:47:03.103Z,101688.33
2018-07-15T17:50:05.320Z,101690.26
2018-07-15T17:53:07.446Z,101686.18
2018-07-15T17:56:09.631Z,101682.80
2018-07-15T17:59:11.649Z,101678.02
2018-07-15T18:02:14.482Z,101680.03
2018-07-15T18:05:17.547Z,101673.49
2018-07-15T18:08:19.595Z,101666.16
2018-07-15T18:11:21.696Z,101663.02
2018-07-15T18:14:23.794Z,101663.43
2018-07-15T18:17:25.957Z,101659.08
2018-07-15T18:20:28.020Z,101650.24
2018-07-15T18:23:31.095Z,101648.50
2018-07-15T18:26:33.279Z,101647.30
2018-07-15T18:29:35.464Z,101653.04
2018-07-15T18:32:37.458Z,101652.05
2018-07-15T18:35:39.670Z,101645.67
2018-07-15T18:38:42.943Z,101638.36
2018-07-15T18:41:45.128Z,101628.49
2018-07-15T18:44:47.261Z,101624.92
2018-07-15T18:47:49.303Z,101610.84
2018-07-15T18:50:51.374Z,101603.51
2018-07-15T18:53:53.523Z,101596.92
2018-07-15T18:56:55.771Z,101587.89
2018-07-15T18:59:57.776Z,101577.38
2018-07-15T19:03:00.057Z,101577.05
2018-07-15T19:06:02.241Z,101576.36
2018-07-15T19:09:05.779Z,101565.28
2018-07-15T19:12:07.927Z,101560.28
2018-07-15T19:15:10.066Z,101563.26
2018-07-15T19:18:12.215Z,101562.35
2018-07-15T19:21:14.848Z,101559.62
2018-07-15T19:24:17.020Z,101569.14
2018-07-15T19:27:19.071Z,101566.86
2018-07-15T19:30:21.224Z,101562.52
2018-07-15T19:33:23.389Z,101563.53
2018-07-15T19:36:25.464Z,101568.83
2018-07-15T19:39:27.456Z,101555.25
2018-07-15T19:42:30.766Z,101552.27
2018-07-15T19:45:32.758Z,101542.09
2018-07-15T19:48:34.911Z,101534.52
2018-07-15T19:51:36.935Z,101533.85
2018-07-15T19:54:42.215Z,101534.39
2018-07-15T19:57:45.540Z,101538.75
2018-07-15T20:00:47.606Z,101536.37
2018-07-15T20:03:50.830Z,101540.69
2018-07-15T20:06:53.050Z,101547.40
2018-07-15T20:09:55.135Z,101546.91
2018-07-15T20:12:57.661Z,101546.00
2018-07-15T20:15:59.823Z,101546.51
2018-07-15T20:19:01.892Z,101552.76
2018-07-15T20:22:04.031Z,101554.12
2018-07-15T20:25:06.434Z,101556.77
2018-07-15T20:28:08.559Z,101576.83
2018-07-15T20:31:10.723Z,101597.79
2018-07-15T20:34:12.731Z,101618.57
2018-07-15T20:37:15.483Z,101612.67
2018-07-15T20:40:17.545Z,101610.67
2018-07-15T20:43:19.595Z,101628.47
2018-07-15T20:46:21.684Z,101624.01
2018-07-15T20:49:23.791Z,101614.52
2018-07-15T20:52:25.937Z,101630.69
2018-07-15T20:55:29.011Z,101635.44
2018-07-15T20:58:31.885Z,101625.61
2018-07-15T21:01:34.344Z,101632.87
2018-07-15T21:04:36.460Z,101634.41
2018-07-15T21:07:39.562Z,101630.72
2018-07-15T21:10:41.628Z,101627.61
2018-07-15T21:13:43.692Z,101626.22
2018-07-15T21:16:47.192Z,101633.88
2018-07-15T21:19:49.273Z,101637.69
2018-07-15T21:22:53.396Z,101637.27
2018-07-15T21:25:55.456Z,101639.02
2018-07-15T21:28:57.410Z,101644.89
2018-07-15T21:32:00.542Z,101645.58
2018-07-15T21:35:02.674Z,101645.64
2018-07-15T21:38:04.999Z,101649.04
2018-07-15T21:41:07.152Z,101648.12
2018-07-15T21:44:10.292Z,101647.25
2018-07-15T21:47:13.610Z,101653.55
2018-07-15T21:50:16.412Z,101657.61
2018-07-15T21:53:18.580Z,101661.00
2018-07-15T21:56:20.809Z,101660.51
2018-07-15T21:59:22.932Z,101661.45
2018-07-15T22:02:25.013Z,101669.78
2018-07-15T22:05:27.057Z,101665.61
2018-07-15T22:08:40.866Z,101659.08
2018-07-15T22:11:42.971Z,101660.43
2018-07-15T22:14:45.963Z,101663.53
2018-07-15T22:17:48.040Z,101664.55
2018-07-15T22:20:50.152Z,101669.89
2018-07-15T22:23:52.252Z,101669.73
2018-07-15T22:26:54.347Z,101669.17
2018-07-15T22:29:56.428Z,101670.12
2018-07-15T22:32:58.660Z,101671.69
2018-07-15T22:36:01.692Z,101675.51
2018-07-15T22:39:05.366Z,101673.91
2018-07-15T22:42:07.707Z,101678.55
2018-07-15T22:45:09.749Z,101676.05
2018-07-15T22:48:11.922Z,101674.74
2018-07-15T22:51:14.004Z,101679.92
2018-07-15T22:54:16.709Z,101681.18
2018-07-15T22:57:18.903Z,101681.56
2018-07-15T23:00:21.055Z,101679.10
2018-07-15T23:03:23.219Z,101668.29
2018-07-15T23:06:25.271Z,101672.80
2018-07-15T23:09:27.424Z,101677.93
2018-07-15T23:12:29.476Z,101678.27
2018-07-15T23:15:35.816Z,101682.09
2018-07-15T23:18:37.925Z,101682.14
2018-07-15T23:21:39.983Z,101689.82
2018-07-15T23:24:42.108Z,101688.69
2018-07-15T23:27:44.445Z,101684.21
2018-07-15T23:30:46.527Z,101676.19
2018-07-15T23:33:48.603Z,101676.29
2018-07-15T23:36:50.635Z,101674.01
2018-07-15T23:39:52.567Z,101669.38
2018-07-15T23:42:55.461Z,101667.99
2018-07-15T23:45:57.471Z,101665.57
2018-07-15T23:48:59.419Z,101665.82
2018-07-15T23:52:01.598Z,101662.82
2018-07-15T23:55:03.674Z,101665.63
2018-07-15T23:58:05.814Z,101660.99
